sensor_id;sensor_type;location;lat;lon;timestamp;temperature;humidity
27439;DHT22;14887;51.252;7.470;2024-01-30T00:02:24;5.90;99.90
27439;DHT22;14887;51.252;7.470;2024-01-30T00:04:51;5.90;99.90
27439;DHT22;14887;51.252;7.470;2024-01-30T00:07:16;5.90;99.90
27439;DHT22;14887;51.252;7.470;2024-01-30T00:09:42;5.90;99.90
27439;DHT22;14887;51.252;7.470;2024-01-30T00:12:07;5.90;99.90
27439;DHT22;14887;51.252;7.470;2024-01-30T00:14:33;5.90;99.90
27439;DHT22;14887;51.252;7.470;2024-01-30T00:16:58;5.80;99.90
27439;DHT22;14887;51.252;7.470;2024-01-30T00:19:24;5.80;99.90
27439;DHT22;14887;51.252;7.470;2024-01-30T00:21:49;5.80;1.00
27439;DHT22;14887;51.252;7.470;2024-01-30T00:24:15;5.80;1.00
27439;DHT22;14887;51.252;7.470;2024-01-30T00:26:40;5.80;1.00
27439;DHT22;14887;51.252;7.470;2024-01-30T00:29:06;5.80;99.90
27439;DHT22;14887;51.252;7.470;2024-01-30T00:31:31;5.70;1.00
27439;DHT22;14887;51.252;7.470;2024-01-30T00:33:57;5.80;1.00
27439;DHT22;14887;51.252;7.470;2024-01-30T00:36:23;5.70;1.00
27439;DHT22;14887;51.252;7.470;2024-01-30T00:38:48;5.70;1.00
27439;DHT22;14887;51.252;7.470;2024-01-30T00:41:14;5.80;1.00
27439;DHT22;14887;51.252;7.470;2024-01-30T00:43:40;5.80;1.00
27439;DHT22;14887;51.252;7.470;2024-01-30T00:46:05;5.80;1.00
27439;DHT22;14887;51.252;7.470;2024-01-30T00:48:31;5.80;1.00
27439;DHT22;14887;51.252;7.470;2024-01-30T00:50:56;5.80;1.00
27439;DHT22;14887;51.252;7.470;2024-01-30T00:53:22;5.80;1.00
27439;DHT22;14887;51.252;7.470;2024-01-30T00:55:47;5.70;1.00
27439;DHT22;14887;51.252;7.470;2024-01-30T00:58:13;5.80;1.00
27439;DHT22;14887;51.252;7.470;2024-01-30T01:00:39;5.80;1.00
27439;DHT22;14887;51.252;7.470;2024-01-30T01:03:04;5.70;1.00
27439;DHT22;14887;51.252;7.470;2024-01-30T01:05:30;5.80;1.00
27439;DHT22;14887;51.252;7.470;2024-01-30T01:07:55;5.70;1.00
27439;DHT22;14887;51.252;7.470;2024-01-30T01:10:21;5.70;1.00
27439;DHT22;14887;51.252;7.470;2024-01-30T01:12:48;5.80;1.00
27439;DHT22;14887;51.252;7.470;2024-01-30T01:15:14;5.70;1.00
27439;DHT22;14887;51.252;7.470;2024-01-30T01:17:39;5.80;1.00
27439;DHT22;14887;51.252;7.470;2024-01-30T01:20:06;5.80;1.00
27439;DHT22;14887;51.252;7.470;2024-01-30T01:22:32;5.70;1.00
27439;DHT22;14887;51.252;7.470;2024-01-30T01:24:59;5.80;1.00
27439;DHT22;14887;51.252;7.470;2024-01-30T01:27:24;5.80;1.00
27439;DHT22;14887;51.252;7.470;2024-01-30T01:29:51;5.70;1.00
27439;DHT22;14887;51.252;7.470;2024-01-30T01:32:16;5.80;1.00
27439;DHT22;14887;51.252;7.470;2024-01-30T01:34:42;5.80;1.00
27439;DHT22;14887;51.252;7.470;2024-01-30T01:37:07;5.80;1.00
27439;DHT22;14887;51.252;7.470;2024-01-30T01:39:33;5.80;1.00
27439;DHT22;14887;51.252;7.470;2024-01-30T01:41:59;5.80;1.00
27439;DHT22;14887;51.252;7.470;2024-01-30T01:44:24;5.80;1.00
27439;DHT22;14887;51.252;7.470;2024-01-30T01:46:51;5.80;1.00
27439;DHT22;14887;51.252;7.470;2024-01-30T01:49:17;5.80;1.00
27439;DHT22;14887;51.252;7.470;2024-01-30T01:51:46;5.80;1.00
27439;DHT22;14887;51.252;7.470;2024-01-30T01:54:13;5.80;1.00
27439;DHT22;14887;51.252;7.470;2024-01-30T01:56:39;5.80;99.90
27439;DHT22;14887;51.252;7.470;2024-01-30T01:59:06;5.80;99.90
27439;DHT22;14887;51.252;7.470;2024-01-30T02:01:38;5.80;99.90
27439;DHT22;14887;51.252;7.470;2024-01-30T02:04:04;5.80;99.90
27439;DHT22;14887;51.252;7.470;2024-01-30T02:06:30;5.80;99.90
27439;DHT22;14887;51.252;7.470;2024-01-30T02:08:55;5.80;1.00
27439;DHT22;14887;51.252;7.470;2024-01-30T02:11:22;5.90;1.00
27439;DHT22;14887;51.252;7.470;2024-01-30T02:13:48;5.80;99.90
27439;DHT22;14887;51.252;7.470;2024-01-30T02:16:14;5.80;99.90
27439;DHT22;14887;51.252;7.470;2024-01-30T02:18:40;5.80;99.90
27439;DHT22;14887;51.252;7.470;2024-01-30T02:21:11;5.90;99.90
27439;DHT22;14887;51.252;7.470;2024-01-30T02:23:36;5.90;99.90
27439;DHT22;14887;51.252;7.470;2024-01-30T02:26:03;5.90;99.90
27439;DHT22;14887;51.252;7.470;2024-01-30T02:28:28;5.90;99.90
27439;DHT22;14887;51.252;7.470;2024-01-30T02:30:54;5.90;99.90
27439;DHT22;14887;51.252;7.470;2024-01-30T02:33:20;5.90;99.90
27439;DHT22;14887;51.252;7.470;2024-01-30T02:35:47;5.90;99.90
27439;DHT22;14887;51.252;7.470;2024-01-30T02:38:12;5.90;99.90
27439;DHT22;14887;51.252;7.470;2024-01-30T02:40:38;5.90;99.90
27439;DHT22;14887;51.252;7.470;2024-01-30T02:43:04;6.00;99.90
27439;DHT22;14887;51.252;7.470;2024-01-30T02:45:29;6.00;99.90
27439;DHT22;14887;51.252;7.470;2024-01-30T02:47:55;5.90;99.90
27439;DHT22;14887;51.252;7.470;2024-01-30T02:50:20;5.90;99.90
27439;DHT22;14887;51.252;7.470;2024-01-30T02:52:46;6.00;99.90
27439;DHT22;14887;51.252;7.470;2024-01-30T02:55:12;6.00;99.90
27439;DHT22;14887;51.252;7.470;2024-01-30T02:57:38;6.10;99.90
27439;DHT22;14887;51.252;7.470;2024-01-30T03:00:04;6.00;99.90
27439;DHT22;14887;51.252;7.470;2024-01-30T03:02:32;6.00;99.90
27439;DHT22;14887;51.252;7.470;2024-01-30T03:04:57;6.00;99.90
27439;DHT22;14887;51.252;7.470;2024-01-30T03:07:23;6.10;99.90
27439;DHT22;14887;51.252;7.470;2024-01-30T03:09:49;6.10;99.90
27439;DHT22;14887;51.252;7.470;2024-01-30T03:12:14;6.00;99.90
27439;DHT22;14887;51.252;7.470;2024-01-30T03:14:40;6.10;99.90
27439;DHT22;14887;51.252;7.470;2024-01-30T03:17:05;6.00;99.90
27439;DHT22;14887;51.252;7.470;2024-01-30T03:19:31;6.00;99.90
27439;DHT22;14887;51.252;7.470;2024-01-30T03:21:56;6.00;99.90
27439;DHT22;14887;51.252;7.470;2024-01-30T03:24:22;6.00;99.90
27439;DHT22;14887;51.252;7.470;2024-01-30T03:26:47;6.00;99.90
27439;DHT22;14887;51.252;7.470;2024-01-30T03:29:13;6.00;99.90
27439;DHT22;14887;51.252;7.470;2024-01-30T03:31:39;6.00;99.90
27439;DHT22;14887;51.252;7.470;2024-01-30T03:34:05;6.00;99.90
27439;DHT22;14887;51.252;7.470;2024-01-30T03:36:30;6.10;99.90
27439;DHT22;14887;51.252;7.470;2024-01-30T03:38:58;6.00;99.90
27439;DHT22;14887;51.252;7.470;2024-01-30T03:41:24;6.00;99.90
27439;DHT22;14887;51.252;7.470;2024-01-30T03:43:50;6.10;99.90
27439;DHT22;14887;51.252;7.470;2024-01-30T03:46:15;6.10;99.90
27439;DHT22;14887;51.252;7.470;2024-01-30T03:48:41;6.10;99.90
27439;DHT22;14887;51.252;7.470;2024-01-30T03:51:07;6.10;99.90
27439;DHT22;14887;51.252;7.470;2024-01-30T03:53:32;6.10;99.90
27439;DHT22;14887;51.252;7.470;2024-01-30T03:55:58;6.10;99.90
27439;DHT22;14887;51.252;7.470;2024-01-30T03:58:23;6.10;32.40
27439;DHT22;14887;51.252;7.470;2024-01-30T04:00:49;6.10;1.00
27439;DHT22;14887;51.252;7.470;2024-01-30T04:03:15;6.10;1.00
27439;DHT22;14887;51.252;7.470;2024-01-30T04:05:43;6.20;1.00
27439;DHT22;14887;51.252;7.470;2024-01-30T04:08:09;6.30;1.00
27439;DHT22;14887;51.252;7.470;2024-01-30T04:10:35;6.20;1.00
27439;DHT22;14887;51.252;7.470;2024-01-30T04:13:00;6.20;1.00
27439;DHT22;14887;51.252;7.470;2024-01-30T04:15:26;6.20;1.00
27439;DHT22;14887;51.252;7.470;2024-01-30T04:17:53;6.10;1.00
27439;DHT22;14887;51.252;7.470;2024-01-30T04:20:18;6.20;1.00
27439;DHT22;14887;51.252;7.470;2024-01-30T04:22:45;6.20;1.00
27439;DHT22;14887;51.252;7.470;2024-01-30T04:25:14;6.20;1.00
27439;DHT22;14887;51.252;7.470;2024-01-30T04:27:39;6.20;1.00
27439;DHT22;14887;51.252;7.470;2024-01-30T04:30:05;6.20;1.00
27439;DHT22;14887;51.252;7.470;2024-01-30T04:32:32;6.20;1.00
27439;DHT22;14887;51.252;7.470;2024-01-30T04:34:58;6.20;1.00
27439;DHT22;14887;51.252;7.470;2024-01-30T04:37:23;6.20;1.00
27439;DHT22;14887;51.252;7.470;2024-01-30T04:39:49;6.20;1.00
27439;DHT22;14887;51.252;7.470;2024-01-30T04:42:14;6.20;1.00
27439;DHT22;14887;51.252;7.470;2024-01-30T04:44:40;6.20;1.00
27439;DHT22;14887;51.252;7.470;2024-01-30T04:47:05;6.20;1.00
27439;DHT22;14887;51.252;7.470;2024-01-30T04:49:34;6.10;1.00
27439;DHT22;14887;51.252;7.470;2024-01-30T04:52:00;6.10;1.00
27439;DHT22;14887;51.252;7.470;2024-01-30T04:54:25;6.20;9.80
27439;DHT22;14887;51.252;7.470;2024-01-30T04:56:51;6.10;1.00
27439;DHT22;14887;51.252;7.470;2024-01-30T04:59:16;6.10;1.00
27439;DHT22;14887;51.252;7.470;2024-01-30T05:01:42;6.10;28.20
27439;DHT22;14887;51.252;7.470;2024-01-30T05:04:08;6.10;69.80
27439;DHT22;14887;51.252;7.470;2024-01-30T05:06:34;6.20;99.90
27439;DHT22;14887;51.252;7.470;2024-01-30T05:08:59;6.20;88.20
27439;DHT22;14887;51.252;7.470;2024-01-30T05:11:25;6.20;27.40
27439;DHT22;14887;51.252;7.470;2024-01-30T05:13:50;6.20;32.40
27439;DHT22;14887;51.252;7.470;2024-01-30T05:16:16;6.20;1.00
27439;DHT22;14887;51.252;7.470;2024-01-30T05:18:41;6.20;1.00
27439;DHT22;14887;51.252;7.470;2024-01-30T05:21:07;6.20;31.40
27439;DHT22;14887;51.252;7.470;2024-01-30T05:23:33;6.20;1.00
27439;DHT22;14887;51.252;7.470;2024-01-30T05:25:58;6.10;1.00
27439;DHT22;14887;51.252;7.470;2024-01-30T05:28:26;6.10;1.00
27439;DHT22;14887;51.252;7.470;2024-01-30T05:30:51;6.10;11.10
27439;DHT22;14887;51.252;7.470;2024-01-30T05:33:17;6.10;92.70
27439;DHT22;14887;51.252;7.470;2024-01-30T05:35:43;6.10;49.90
27439;DHT22;14887;51.252;7.470;2024-01-30T05:38:08;6.00;99.50
27439;DHT22;14887;51.252;7.470;2024-01-30T05:40:34;6.00;99.90
27439;DHT22;14887;51.252;7.470;2024-01-30T05:42:59;5.90;99.90
27439;DHT22;14887;51.252;7.470;2024-01-30T05:45:26;5.90;99.90
27439;DHT22;14887;51.252;7.470;2024-01-30T05:47:52;5.90;99.90
27439;DHT22;14887;51.252;7.470;2024-01-30T05:50:18;5.80;99.90
27439;DHT22;14887;51.252;7.470;2024-01-30T05:52:44;5.70;99.90
27439;DHT22;14887;51.252;7.470;2024-01-30T05:55:10;5.80;99.90
27439;DHT22;14887;51.252;7.470;2024-01-30T05:57:37;5.80;99.90
27439;DHT22;14887;51.252;7.470;2024-01-30T06:00:03;5.80;99.90
27439;DHT22;14887;51.252;7.470;2024-01-30T06:02:29;5.80;99.90
27439;DHT22;14887;51.252;7.470;2024-01-30T06:04:55;5.80;99.90
27439;DHT22;14887;51.252;7.470;2024-01-30T06:07:20;5.80;99.90
27439;DHT22;14887;51.252;7.470;2024-01-30T06:09:47;5.70;99.90
27439;DHT22;14887;51.252;7.470;2024-01-30T06:12:12;5.80;99.90
27439;DHT22;14887;51.252;7.470;2024-01-30T06:14:38;5.80;99.90
27439;DHT22;14887;51.252;7.470;2024-01-30T06:17:04;5.80;99.90
27439;DHT22;14887;51.252;7.470;2024-01-30T06:19:30;5.80;99.90
27439;DHT22;14887;51.252;7.470;2024-01-30T06:21:55;5.90;99.90
27439;DHT22;14887;51.252;7.470;2024-01-30T06:24:21;5.90;99.90
27439;DHT22;14887;51.252;7.470;2024-01-30T06:26:47;6.00;99.90
27439;DHT22;14887;51.252;7.470;2024-01-30T06:29:12;6.00;99.90
27439;DHT22;14887;51.252;7.470;2024-01-30T06:31:41;6.00;99.90
27439;DHT22;14887;51.252;7.470;2024-01-30T06:34:07;6.00;99.90
27439;DHT22;14887;51.252;7.470;2024-01-30T06:36:33;6.00;99.90
27439;DHT22;14887;51.252;7.470;2024-01-30T06:38:58;5.90;99.90
27439;DHT22;14887;51.252;7.470;2024-01-30T06:41:24;5.90;99.90
27439;DHT22;14887;51.252;7.470;2024-01-30T06:43:50;5.90;99.90
27439;DHT22;14887;51.252;7.470;2024-01-30T06:46:15;5.90;99.90
27439;DHT22;14887;51.252;7.470;2024-01-30T06:48:41;5.90;99.90
27439;DHT22;14887;51.252;7.470;2024-01-30T06:51:06;5.90;99.90
27439;DHT22;14887;51.252;7.470;2024-01-30T06:53:32;5.90;99.90
27439;DHT22;14887;51.252;7.470;2024-01-30T06:55:57;5.90;99.90
27439;DHT22;14887;51.252;7.470;2024-01-30T06:58:23;5.90;99.90
27439;DHT22;14887;51.252;7.470;2024-01-30T07:00:49;5.90;99.90
27439;DHT22;14887;51.252;7.470;2024-01-30T07:03:14;5.80;99.90
27439;DHT22;14887;51.252;7.470;2024-01-30T07:05:40;5.80;99.90
27439;DHT22;14887;51.252;7.470;2024-01-30T07:08:05;5.90;1.00
27439;DHT22;14887;51.252;7.470;2024-01-30T07:10:31;5.90;99.90
27439;DHT22;14887;51.252;7.470;2024-01-30T07:12:57;6.00;99.90
27439;DHT22;14887;51.252;7.470;2024-01-30T07:15:22;6.00;99.90
27439;DHT22;14887;51.252;7.470;2024-01-30T07:17:48;6.00;99.90
27439;DHT22;14887;51.252;7.470;2024-01-30T07:20:13;6.10;99.90
27439;DHT22;14887;51.252;7.470;2024-01-30T07:22:40;6.10;99.90
27439;DHT22;14887;51.252;7.470;2024-01-30T07:25:06;6.10;99.90
27439;DHT22;14887;51.252;7.470;2024-01-30T07:27:31;6.20;99.90
27439;DHT22;14887;51.252;7.470;2024-01-30T07:29:57;6.20;99.90
27439;DHT22;14887;51.252;7.470;2024-01-30T07:32:22;6.30;99.90
27439;DHT22;14887;51.252;7.470;2024-01-30T07:34:49;6.30;99.90
27439;DHT22;14887;51.252;7.470;2024-01-30T07:37:14;6.40;99.90
27439;DHT22;14887;51.252;7.470;2024-01-30T07:39:41;6.40;99.90
27439;DHT22;14887;51.252;7.470;2024-01-30T07:42:07;6.50;71.60
27439;DHT22;14887;51.252;7.470;2024-01-30T07:44:33;6.50;15.60
27439;DHT22;14887;51.252;7.470;2024-01-30T07:46:59;6.50;8.10
27439;DHT22;14887;51.252;7.470;2024-01-30T07:49:25;6.60;1.00
27439;DHT22;14887;51.252;7.470;2024-01-30T07:51:50;6.60;1.00
27439;DHT22;14887;51.252;7.470;2024-01-30T07:54:16;6.60;1.00
27439;DHT22;14887;51.252;7.470;2024-01-30T07:56:41;6.70;1.00
27439;DHT22;14887;51.252;7.470;2024-01-30T07:59:11;6.70;1.00
27439;DHT22;14887;51.252;7.470;2024-01-30T08:01:37;6.70;1.00
27439;DHT22;14887;51.252;7.470;2024-01-30T08:04:02;6.70;1.00
27439;DHT22;14887;51.252;7.470;2024-01-30T08:06:28;6.70;1.00
27439;DHT22;14887;51.252;7.470;2024-01-30T08:08:53;6.80;1.00
27439;DHT22;14887;51.252;7.470;2024-01-30T08:11:22;6.80;1.00
27439;DHT22;14887;51.252;7.470;2024-01-30T08:13:52;6.90;1.00
27439;DHT22;14887;51.252;7.470;2024-01-30T08:16:18;6.90;99.90
27439;DHT22;14887;51.252;7.470;2024-01-30T08:18:44;6.90;99.90
27439;DHT22;14887;51.252;7.470;2024-01-30T08:21:09;7.00;99.90
27439;DHT22;14887;51.252;7.470;2024-01-30T08:23:35;7.00;99.90
27439;DHT22;14887;51.252;7.470;2024-01-30T08:26:01;7.00;3.90
27439;DHT22;14887;51.252;7.470;2024-01-30T08:28:26;7.00;1.00
27439;DHT22;14887;51.252;7.470;2024-01-30T08:30:52;7.10;8.20
27439;DHT22;14887;51.252;7.470;2024-01-30T08:33:18;7.10;1.00
27439;DHT22;14887;51.252;7.470;2024-01-30T08:35:43;7.10;1.00
27439;DHT22;14887;51.252;7.470;2024-01-30T08:38:09;7.20;1.00
27439;DHT22;14887;51.252;7.470;2024-01-30T08:40:34;7.20;1.00
27439;DHT22;14887;51.252;7.470;2024-01-30T08:43:00;7.20;1.00
27439;DHT22;14887;51.252;7.470;2024-01-30T08:45:25;7.30;1.00
27439;DHT22;14887;51.252;7.470;2024-01-30T08:47:51;7.30;1.00
27439;DHT22;14887;51.252;7.470;2024-01-30T08:50:17;7.30;1.00
27439;DHT22;14887;51.252;7.470;2024-01-30T08:52:42;7.30;1.00
27439;DHT22;14887;51.252;7.470;2024-01-30T08:55:08;7.30;99.90
27439;DHT22;14887;51.252;7.470;2024-01-30T08:57:33;7.30;99.90
27439;DHT22;14887;51.252;7.470;2024-01-30T08:59:59;7.40;99.90
27439;DHT22;14887;51.252;7.470;2024-01-30T09:02:25;7.40;99.90
27439;DHT22;14887;51.252;7.470;2024-01-30T09:04:51;7.50;99.90
27439;DHT22;14887;51.252;7.470;2024-01-30T09:07:16;7.50;99.90
27439;DHT22;14887;51.252;7.470;2024-01-30T09:09:42;7.60;99.90
27439;DHT22;14887;51.252;7.470;2024-01-30T09:12:08;7.60;55.90
27439;DHT22;14887;51.252;7.470;2024-01-30T09:14:35;7.60;1.00
27439;DHT22;14887;51.252;7.470;2024-01-30T09:17:01;7.60;1.00
27439;DHT22;14887;51.252;7.470;2024-01-30T09:19:28;7.60;1.00
27439;DHT22;14887;51.252;7.470;2024-01-30T09:21:53;7.60;1.00
27439;DHT22;14887;51.252;7.470;2024-01-30T09:24:19;7.60;1.00
27439;DHT22;14887;51.252;7.470;2024-01-30T09:26:45;7.60;1.00
27439;DHT22;14887;51.252;7.470;2024-01-30T09:29:10;7.60;1.00
27439;DHT22;14887;51.252;7.470;2024-01-30T09:31:36;7.60;1.00
27439;DHT22;14887;51.252;7.470;2024-01-30T09:34:01;7.60;99.90
27439;DHT22;14887;51.252;7.470;2024-01-30T09:36:27;7.70;99.90
27439;DHT22;14887;51.252;7.470;2024-01-30T09:38:53;7.80;99.90
27439;DHT22;14887;51.252;7.470;2024-01-30T09:41:19;7.90;1.00
27439;DHT22;14887;51.252;7.470;2024-01-30T09:43:48;8.10;99.90
27439;DHT22;14887;51.252;7.470;2024-01-30T09:46:17;8.20;99.90
27439;DHT22;14887;51.252;7.470;2024-01-30T09:48:48;8.20;1.00
27439;DHT22;14887;51.252;7.470;2024-01-30T09:51:15;8.20;1.00
27439;DHT22;14887;51.252;7.470;2024-01-30T09:53:43;8.20;8.50
27439;DHT22;14887;51.252;7.470;2024-01-30T09:56:12;8.30;1.00
27439;DHT22;14887;51.252;7.470;2024-01-30T09:58:38;8.30;1.00
27439;DHT22;14887;51.252;7.470;2024-01-30T10:01:05;8.50;1.00
27439;DHT22;14887;51.252;7.470;2024-01-30T10:03:31;8.60;1.00
27439;DHT22;14887;51.252;7.470;2024-01-30T10:05:57;8.80;99.90
27439;DHT22;14887;51.252;7.470;2024-01-30T10:08:22;8.80;80.90
27439;DHT22;14887;51.252;7.470;2024-01-30T10:10:49;8.90;94.20
27439;DHT22;14887;51.252;7.470;2024-01-30T10:13:15;8.90;1.00
27439;DHT22;14887;51.252;7.470;2024-01-30T10:15:41;8.90;1.00
27439;DHT22;14887;51.252;7.470;2024-01-30T10:18:08;8.90;1.00
27439;DHT22;14887;51.252;7.470;2024-01-30T10:20:35;8.90;1.00
27439;DHT22;14887;51.252;7.470;2024-01-30T10:23:01;8.90;1.00
27439;DHT22;14887;51.252;7.470;2024-01-30T10:25:27;8.90;1.00
27439;DHT22;14887;51.252;7.470;2024-01-30T10:27:53;8.90;1.00
27439;DHT22;14887;51.252;7.470;2024-01-30T10:30:22;8.90;1.00
27439;DHT22;14887;51.252;7.470;2024-01-30T10:32:48;9.00;1.00
27439;DHT22;14887;51.252;7.470;2024-01-30T10:35:14;9.00;1.00
27439;DHT22;14887;51.252;7.470;2024-01-30T10:37:41;9.00;1.00
27439;DHT22;14887;51.252;7.470;2024-01-30T10:40:09;9.00;1.00
27439;DHT22;14887;51.252;7.470;2024-01-30T10:42:42;9.20;1.00
27439;DHT22;14887;51.252;7.470;2024-01-30T10:45:09;9.20;1.00
27439;DHT22;14887;51.252;7.470;2024-01-30T10:47:36;9.30;1.00
27439;DHT22;14887;51.252;7.470;2024-01-30T10:50:02;9.50;99.90
27439;DHT22;14887;51.252;7.470;2024-01-30T10:52:29;9.60;99.90
27439;DHT22;14887;51.252;7.470;2024-01-30T10:54:55;9.70;99.90
27439;DHT22;14887;51.252;7.470;2024-01-30T10:57:25;9.80;58.30
27439;DHT22;14887;51.252;7.470;2024-01-30T10:59:53;9.80;23.10
27439;DHT22;14887;51.252;7.470;2024-01-30T11:02:20;9.80;1.00
27439;DHT22;14887;51.252;7.470;2024-01-30T11:04:47;9.80;1.00
27439;DHT22;14887;51.252;7.470;2024-01-30T11:07:17;9.80;56.20
27439;DHT22;14887;51.252;7.470;2024-01-30T11:12:16;9.80;60.00
27439;DHT22;14887;51.252;7.470;2024-01-30T11:14:42;9.80;1.00
27439;DHT22;14887;51.252;7.470;2024-01-30T11:17:09;9.90;1.00
27439;DHT22;14887;51.252;7.470;2024-01-30T11:19:35;9.90;1.00
27439;DHT22;14887;51.252;7.470;2024-01-30T11:22:01;10.00;1.00
27439;DHT22;14887;51.252;7.470;2024-01-30T11:24:27;10.00;1.00
27439;DHT22;14887;51.252;7.470;2024-01-30T11:26:57;10.00;1.00
27439;DHT22;14887;51.252;7.470;2024-01-30T11:29:30;10.10;1.00
27439;DHT22;14887;51.252;7.470;2024-01-30T11:31:58;10.20;1.00
27439;DHT22;14887;51.252;7.470;2024-01-30T11:34:24;10.20;1.00
27439;DHT22;14887;51.252;7.470;2024-01-30T11:36:59;10.20;1.00
27439;DHT22;14887;51.252;7.470;2024-01-30T11:39:27;10.20;1.00
27439;DHT22;14887;51.252;7.470;2024-01-30T11:41:53;10.30;1.00
27439;DHT22;14887;51.252;7.470;2024-01-30T11:44:22;10.30;1.00
27439;DHT22;14887;51.252;7.470;2024-01-30T11:46:49;10.30;1.00
27439;DHT22;14887;51.252;7.470;2024-01-30T11:49:15;10.40;1.00
27439;DHT22;14887;51.252;7.470;2024-01-30T11:51:41;10.40;1.00
27439;DHT22;14887;51.252;7.470;2024-01-30T11:54:07;10.50;1.00
27439;DHT22;14887;51.252;7.470;2024-01-30T11:56:33;10.70;1.00
27439;DHT22;14887;51.252;7.470;2024-01-30T11:58:58;10.80;1.00
27439;DHT22;14887;51.252;7.470;2024-01-30T12:01:26;10.80;99.90
27439;DHT22;14887;51.252;7.470;2024-01-30T12:03:51;10.80;99.90
27439;DHT22;14887;51.252;7.470;2024-01-30T12:06:17;10.80;99.90
27439;DHT22;14887;51.252;7.470;2024-01-30T12:08:43;10.90;99.90
27439;DHT22;14887;51.252;7.470;2024-01-30T12:11:10;11.00;99.90
27439;DHT22;14887;51.252;7.470;2024-01-30T12:13:36;11.10;99.90
27439;DHT22;14887;51.252;7.470;2024-01-30T12:16:01;11.10;99.90
27439;DHT22;14887;51.252;7.470;2024-01-30T12:18:27;11.10;99.90
27439;DHT22;14887;51.252;7.470;2024-01-30T12:20:59;11.20;99.90
27439;DHT22;14887;51.252;7.470;2024-01-30T12:23:26;11.20;99.90
27439;DHT22;14887;51.252;7.470;2024-01-30T12:25:52;11.20;99.90
27439;DHT22;14887;51.252;7.470;2024-01-30T12:28:19;11.30;99.90
27439;DHT22;14887;51.252;7.470;2024-01-30T12:30:45;11.30;99.90
27439;DHT22;14887;51.252;7.470;2024-01-30T12:33:16;11.20;99.90
27439;DHT22;14887;51.252;7.470;2024-01-30T12:35:46;11.20;99.90
27439;DHT22;14887;51.252;7.470;2024-01-30T12:38:12;11.00;99.90
27439;DHT22;14887;51.252;7.470;2024-01-30T12:40:38;10.80;99.90
27439;DHT22;14887;51.252;7.470;2024-01-30T12:43:04;10.70;1.00
27439;DHT22;14887;51.252;7.470;2024-01-30T12:45:30;10.60;1.00
27439;DHT22;14887;51.252;7.470;2024-01-30T12:47:55;10.60;1.00
27439;DHT22;14887;51.252;7.470;2024-01-30T12:50:21;10.60;1.00
27439;DHT22;14887;51.252;7.470;2024-01-30T12:52:47;10.60;1.00
27439;DHT22;14887;51.252;7.470;2024-01-30T12:55:13;10.60;1.00
27439;DHT22;14887;51.252;7.470;2024-01-30T12:57:39;10.70;1.00
27439;DHT22;14887;51.252;7.470;2024-01-30T13:00:05;10.70;1.00
27439;DHT22;14887;51.252;7.470;2024-01-30T13:02:33;10.80;1.00
27439;DHT22;14887;51.252;7.470;2024-01-30T13:05:03;10.70;1.00
27439;DHT22;14887;51.252;7.470;2024-01-30T13:07:29;10.60;1.00
27439;DHT22;14887;51.252;7.470;2024-01-30T13:09:54;10.60;1.00
27439;DHT22;14887;51.252;7.470;2024-01-30T13:12:20;10.50;1.00
27439;DHT22;14887;51.252;7.470;2024-01-30T13:14:45;10.50;1.00
27439;DHT22;14887;51.252;7.470;2024-01-30T13:17:11;10.40;1.00
27439;DHT22;14887;51.252;7.470;2024-01-30T13:19:36;10.40;1.00
27439;DHT22;14887;51.252;7.470;2024-01-30T13:22:02;10.50;1.00
27439;DHT22;14887;51.252;7.470;2024-01-30T13:24:27;10.40;82.80
27439;DHT22;14887;51.252;7.470;2024-01-30T13:26:53;10.30;99.90
27439;DHT22;14887;51.252;7.470;2024-01-30T13:29:18;10.20;99.90
27439;DHT22;14887;51.252;7.470;2024-01-30T13:31:44;10.20;99.90
27439;DHT22;14887;51.252;7.470;2024-01-30T13:34:11;10.10;1.00
27439;DHT22;14887;51.252;7.470;2024-01-30T13:36:38;10.10;1.00
27439;DHT22;14887;51.252;7.470;2024-01-30T13:39:03;10.00;1.00
27439;DHT22;14887;51.252;7.470;2024-01-30T13:41:32;9.90;1.00
27439;DHT22;14887;51.252;7.470;2024-01-30T13:43:58;9.90;99.90
27439;DHT22;14887;51.252;7.470;2024-01-30T13:46:23;9.80;1.00
27439;DHT22;14887;51.252;7.470;2024-01-30T13:48:49;9.80;99.90
27439;DHT22;14887;51.252;7.470;2024-01-30T13:51:14;9.80;99.90
27439;DHT22;14887;51.252;7.470;2024-01-30T13:53:42;9.70;1.00
27439;DHT22;14887;51.252;7.470;2024-01-30T13:56:08;9.60;24.40
27439;DHT22;14887;51.252;7.470;2024-01-30T13:58:33;9.60;99.90
27439;DHT22;14887;51.252;7.470;2024-01-30T14:01:01;9.50;1.00
27439;DHT22;14887;51.252;7.470;2024-01-30T14:03:27;9.50;1.00
27439;DHT22;14887;51.252;7.470;2024-01-30T14:05:52;9.50;99.90
27439;DHT22;14887;51.252;7.470;2024-01-30T14:08:18;9.50;99.90
27439;DHT22;14887;51.252;7.470;2024-01-30T14:10:43;9.50;1.00
27439;DHT22;14887;51.252;7.470;2024-01-30T14:13:09;9.40;1.00
27439;DHT22;14887;51.252;7.470;2024-01-30T14:15:35;9.40;1.00
27439;DHT22;14887;51.252;7.470;2024-01-30T14:18:01;9.40;1.00
27439;DHT22;14887;51.252;7.470;2024-01-30T14:20:27;9.50;99.90
27439;DHT22;14887;51.252;7.470;2024-01-30T14:22:52;9.30;99.90
27439;DHT22;14887;51.252;7.470;2024-01-30T14:25:20;9.30;99.90
27439;DHT22;14887;51.252;7.470;2024-01-30T14:27:46;9.30;1.00
27439;DHT22;14887;51.252;7.470;2024-01-30T14:30:12;9.20;1.00
27439;DHT22;14887;51.252;7.470;2024-01-30T14:32:37;9.20;1.00
27439;DHT22;14887;51.252;7.470;2024-01-30T14:35:05;9.20;1.00
27439;DHT22;14887;51.252;7.470;2024-01-30T14:37:30;9.20;1.00
27439;DHT22;14887;51.252;7.470;2024-01-30T14:39:56;9.20;1.00
27439;DHT22;14887;51.252;7.470;2024-01-30T14:42:21;9.10;1.00
27439;DHT22;14887;51.252;7.470;2024-01-30T14:44:47;9.10;1.00
27439;DHT22;14887;51.252;7.470;2024-01-30T14:47:14;9.10;1.00
27439;DHT22;14887;51.252;7.470;2024-01-30T14:49:40;9.10;1.00
27439;DHT22;14887;51.252;7.470;2024-01-30T14:52:05;9.10;3.80
27439;DHT22;14887;51.252;7.470;2024-01-30T14:54:31;9.10;6.80
27439;DHT22;14887;51.252;7.470;2024-01-30T14:56:57;9.10;1.00
27439;DHT22;14887;51.252;7.470;2024-01-30T14:59:24;9.20;1.00
27439;DHT22;14887;51.252;7.470;2024-01-30T15:01:50;9.20;1.00
27439;DHT22;14887;51.252;7.470;2024-01-30T15:04:15;9.20;1.00
27439;DHT22;14887;51.252;7.470;2024-01-30T15:06:41;9.30;1.00
27439;DHT22;14887;51.252;7.470;2024-01-30T15:09:11;9.40;1.00
27439;DHT22;14887;51.252;7.470;2024-01-30T15:11:40;9.40;99.90
27439;DHT22;14887;51.252;7.470;2024-01-30T15:14:06;9.40;99.90
27439;DHT22;14887;51.252;7.470;2024-01-30T15:16:31;9.40;99.90
27439;DHT22;14887;51.252;7.470;2024-01-30T15:18:57;9.30;99.90
27439;DHT22;14887;51.252;7.470;2024-01-30T15:21:22;9.30;99.90
27439;DHT22;14887;51.252;7.470;2024-01-30T15:23:48;9.30;99.90
27439;DHT22;14887;51.252;7.470;2024-01-30T15:26:14;9.30;99.90
27439;DHT22;14887;51.252;7.470;2024-01-30T15:28:40;9.20;1.00
27439;DHT22;14887;51.252;7.470;2024-01-30T15:31:06;9.20;1.00
27439;DHT22;14887;51.252;7.470;2024-01-30T15:33:33;9.20;1.00
27439;DHT22;14887;51.252;7.470;2024-01-30T15:35:59;9.10;1.00
27439;DHT22;14887;51.252;7.470;2024-01-30T15:38:25;9.10;99.90
27439;DHT22;14887;51.252;7.470;2024-01-30T15:40:51;9.00;99.90
27439;DHT22;14887;51.252;7.470;2024-01-30T15:43:17;9.00;99.90
27439;DHT22;14887;51.252;7.470;2024-01-30T15:45:43;8.90;99.90
27439;DHT22;14887;51.252;7.470;2024-01-30T15:48:08;8.90;99.90